Time;durP1;ratioP1;P1;durP2;ratioP2;P2;SDS_P1;SDS_P2;PMS_P1;PMS_P2;Temp;Humidity;BMP_temperature;BMP_pressure;BME280_temperature;BME280_humidity;BME280_pressure;Samples;Min_cycle;Max_cycle;Signal;HPM_P1;HPM_P2
2023/12/29 00:01:22;;;;;;;2.70;1.53;;;10.70;99.90;;;;;;5089177;28;20607;-73
2023/12/29 00:03:48;;;;;;;3.17;1.33;;;10.80;99.90;;;;;;5089402;28;20269;-74
2023/12/29 00:06:13;;;;;;;4.50;1.40;;;10.80;99.90;;;;;;5087565;28;20207;-73
2023/12/29 00:08:39;;;;;;;1.80;1.70;;;10.80;99.90;;;;;;5088936;28;20209;-73
2023/12/29 00:11:05;;;;;;;1.73;1.50;;;10.70;99.90;;;;;;5087873;28;20186;-73
2023/12/29 00:13:30;;;;;;;1.50;1.40;;;10.70;99.90;;;;;;5089053;28;20660;-74
2023/12/29 00:15:56;;;;;;;2.23;1.67;;;10.80;99.90;;;;;;5088851;28;20702;-73
2023/12/29 00:18:21;;;;;;;1.40;1.30;;;10.80;99.90;;;;;;5089086;28;20208;-73
2023/12/29 00:20:49;;;;;;;1.70;1.60;;;10.70;99.90;;;;;;5087405;28;20232;-73
2023/12/29 00:23:14;;;;;;;2.70;1.73;;;10.70;99.90;;;;;;5087545;28;20702;-73
2023/12/29 00:25:40;;;;;;;1.67;1.57;;;10.70;99.90;;;;;;5088738;28;20447;-74
2023/12/29 00:28:05;;;;;;;2.90;1.70;;;10.70;99.90;;;;;;5087236;28;20773;-74
2023/12/29 00:30:31;;;;;;;1.90;1.40;;;10.70;99.90;;;;;;5088153;28;20273;-74
2023/12/29 00:32:57;;;;;;;4.27;1.97;;;10.70;99.90;;;;;;5088808;28;20177;-74
2023/12/29 00:35:23;;;;;;;1.87;1.67;;;10.60;99.90;;;;;;5086442;28;20813;-74
2023/12/29 00:37:50;;;;;;;1.30;1.20;;;10.50;99.90;;;;;;5087261;28;20679;-74
2023/12/29 00:40:16;;;;;;;4.33;1.60;;;10.60;99.90;;;;;;5087265;28;20193;-74
2023/12/29 00:42:41;;;;;;;1.83;1.57;;;10.60;99.90;;;;;;5087037;28;20532;-73
2023/12/29 00:45:07;;;;;;;2.23;1.70;;;10.60;99.90;;;;;;5088674;28;20191;-73
2023/12/29 00:47:33;;;;;;;3.00;1.70;;;10.60;99.90;;;;;;5088960;28;20217;-74
2023/12/29 00:50:00;;;;;;;3.17;1.90;;;10.70;99.90;;;;;;5089038;28;20429;-73
2023/12/29 00:52:25;;;;;;;2.10;1.60;;;10.60;99.90;;;;;;5087153;28;20512;-73
2023/12/29 00:54:51;;;;;;;1.90;1.57;;;10.70;99.90;;;;;;5089011;28;20505;-74
2023/12/29 00:57:17;;;;;;;2.97;2.13;;;10.70;99.90;;;;;;5087530;28;20258;-73
2023/12/29 00:59:43;;;;;;;3.40;2.10;;;10.70;99.90;;;;;;5088953;28;20188;-73
2023/12/29 01:02:09;;;;;;;1.97;1.70;;;10.60;99.90;;;;;;5088823;28;20182;-73
2023/12/29 01:04:38;;;;;;;2.17;1.80;;;10.80;99.90;;;;;;5087410;28;20446;-73
2023/12/29 01:07:04;;;;;;;3.17;2.20;;;10.80;99.90;;;;;;5088517;28;20286;-73
2023/12/29 01:09:29;;;;;;;3.23;1.90;;;10.80;99.90;;;;;;5088512;28;20913;-73
2023/12/29 01:11:55;;;;;;;4.03;2.03;;;10.90;99.90;;;;;;5088079;28;20193;-73
2023/12/29 01:14:20;;;;;;;2.50;1.87;;;10.80;99.90;;;;;;5088130;28;20308;-73
2023/12/29 01:16:46;;;;;;;6.57;2.30;;;10.70;99.90;;;;;;5086517;28;20202;-73
2023/12/29 01:19:11;;;;;;;2.07;1.67;;;10.80;99.90;;;;;;5086569;28;20191;-73
2023/12/29 01:21:40;;;;;;;2.03;1.93;;;10.80;99.90;;;;;;5087914;28;20189;-73
2023/12/29 01:24:07;;;;;;;3.23;2.10;;;10.80;99.90;;;;;;5086643;28;20560;-73
2023/12/29 01:26:38;;;;;;;2.33;2.17;;;10.80;99.90;;;;;;5086792;28;20568;-74
2023/12/29 01:29:05;;;;;;;1.70;1.57;;;10.70;99.90;;;;;;5086825;28;20425;-73
2023/12/29 01:31:31;;;;;;;5.60;2.10;;;10.70;99.90;;;;;;5088284;28;21078;-73
2023/12/29 01:33:57;;;;;;;4.50;2.53;;;10.70;99.90;;;;;;5088110;28;20405;-74
2023/12/29 01:36:22;;;;;;;1.67;1.57;;;10.70;99.90;;;;;;5088002;28;20484;-73
2023/12/29 01:38:48;;;;;;;3.97;2.60;;;10.80;99.90;;;;;;5087956;28;20469;-73
2023/12/29 01:41:14;;;;;;;2.00;1.90;;;10.70;99.90;;;;;;5072017;28;20189;-73
2023/12/29 01:44:01;;;;;;;2.13;1.97;;;10.70;99.90;;;;;;5091963;28;20179;-74
2023/12/29 01:46:32;;;;;;;2.90;2.20;;;10.60;99.90;;;;;;5090086;28;20439;-74
2023/12/29 01:48:58;;;;;;;4.30;2.33;;;10.60;99.90;;;;;;5091749;28;20421;-74
2023/12/29 01:51:25;;;;;;;4.13;2.30;;;10.60;99.90;;;;;;5091686;28;20422;-74
2023/12/29 01:53:53;;;;;;;2.70;2.20;;;10.60;99.90;;;;;;5091635;28;21051;-73
2023/12/29 01:56:20;;;;;;;2.63;2.30;;;10.60;99.90;;;;;;5091663;28;20555;-74
2023/12/29 01:58:48;;;;;;;4.50;2.10;;;10.60;99.90;;;;;;5091438;28;20453;-74
2023/12/29 02:01:14;;;;;;;4.70;2.00;;;10.50;99.90;;;;;;5091640;28;20535;-74
2023/12/29 02:03:40;;;;;;;2.00;1.80;;;10.50;99.90;;;;;;5089994;28;21062;-74
2023/12/29 02:06:07;;;;;;;3.03;2.10;;;10.50;99.90;;;;;;5089794;28;20550;-73
2023/12/29 02:08:33;;;;;;;3.77;2.40;;;10.40;99.90;;;;;;5091254;28;20212;-73
2023/12/29 02:10:59;;;;;;;2.57;1.93;;;10.50;99.90;;;;;;5091388;28;20453;-73
2023/12/29 02:13:25;;;;;;;2.00;1.87;;;10.40;99.90;;;;;;5091928;28;20422;-73
2023/12/29 02:15:58;;;;;;;2.40;2.20;;;10.40;99.90;;;;;;5091166;28;20205;-73
2023/12/29 02:18:25;;;;;;;3.13;2.00;;;10.30;99.90;;;;;;5089860;28;20195;-73
2023/12/29 02:20:50;;;;;;;2.43;2.23;;;10.40;99.90;;;;;;5091307;28;20437;-73
2023/12/29 02:23:16;;;;;;;3.00;2.27;;;10.30;99.90;;;;;;5089638;28;20428;-73
2023/12/29 02:25:42;;;;;;;3.00;2.30;;;10.30;99.90;;;;;;5091083;28;20210;-73
2023/12/29 02:28:20;;;;;;;2.80;1.90;;;10.30;99.90;;;;;;5089465;28;20705;-73
2023/12/29 02:31:00;;;;;;;4.33;2.40;;;10.20;99.90;;;;;;5091170;28;20182;-73
2023/12/29 02:33:28;;;;;;;4.50;2.10;;;10.20;99.90;;;;;;5089232;28;20422;-73
2023/12/29 02:35:57;;;;;;;5.90;2.40;;;10.20;99.90;;;;;;5090694;28;20815;-73
2023/12/29 02:38:27;;;;;;;1.90;1.80;;;10.20;99.90;;;;;;5090807;28;20422;-73
2023/12/29 02:40:55;;;;;;;2.27;2.07;;;10.20;99.90;;;;;;5090765;28;20433;-73
2023/12/29 02:43:20;;;;;;;4.07;2.33;;;10.20;99.90;;;;;;5089297;28;20444;-73
2023/12/29 02:45:46;;;;;;;2.43;2.17;;;10.20;99.90;;;;;;5072083;28;20442;-73
2023/12/29 02:48:11;;;;;;;3.97;2.10;;;10.10;99.90;;;;;;5072267;28;20713;-73
2023/12/29 02:50:37;;;;;;;1.53;1.43;;;10.00;99.90;;;;;;5090624;28;20207;-73
2023/12/29 02:53:04;;;;;;;1.73;1.60;;;10.10;99.90;;;;;;5088569;28;20665;-73
2023/12/29 02:55:29;;;;;;;2.17;1.50;;;10.10;99.90;;;;;;5089070;28;20222;-73
2023/12/29 02:57:55;;;;;;;1.60;1.50;;;10.10;99.90;;;;;;5088753;28;20468;-74
2023/12/29 03:00:20;;;;;;;1.60;1.50;;;10.10;99.90;;;;;;5089171;28;20238;-73
2023/12/29 03:02:46;;;;;;;2.40;1.93;;;10.10;99.90;;;;;;5090336;28;20722;-73
2023/12/29 03:05:12;;;;;;;6.50;2.03;;;10.10;99.90;;;;;;5090291;28;20206;-74
2023/12/29 03:07:39;;;;;;;3.53;2.20;;;10.10;99.90;;;;;;5090201;28;20202;-73
2023/12/29 03:10:05;;;;;;;2.73;1.60;;;10.10;99.90;;;;;;5090602;28;20417;-74
2023/12/29 03:12:31;;;;;;;2.53;1.93;;;10.10;99.90;;;;;;5088576;28;20529;-74
2023/12/29 03:14:56;;;;;;;2.30;1.63;;;10.10;99.90;;;;;;5090421;28;20438;-73
2023/12/29 03:17:22;;;;;;;1.27;1.17;;;10.10;99.90;;;;;;5089850;28;20297;-74
2023/12/29 03:19:47;;;;;;;1.20;1.10;;;10.20;99.90;;;;;;5088741;28;20289;-73
2023/12/29 03:22:13;;;;;;;1.33;1.23;;;10.10;99.90;;;;;;5088572;28;20555;-74
2023/12/29 03:24:42;;;;;;;2.00;1.40;;;10.20;99.90;;;;;;5090132;28;20190;-74
2023/12/29 03:27:08;;;;;;;1.73;1.17;;;10.20;99.90;;;;;;5088366;28;20222;-74
2023/12/29 03:29:33;;;;;;;1.13;0.90;;;10.10;99.90;;;;;;5090042;28;20474;-73
2023/12/29 03:31:59;;;;;;;1.77;1.20;;;10.00;99.90;;;;;;5088737;28;20979;-74
2023/12/29 03:34:24;;;;;;;2.43;1.20;;;10.10;99.90;;;;;;5090236;28;20197;-74
2023/12/29 03:36:50;;;;;;;1.10;1.00;;;10.00;99.90;;;;;;5090124;28;20593;-74
2023/12/29 03:39:15;;;;;;;1.50;1.23;;;9.90;99.90;;;;;;5088757;28;20186;-74
2023/12/29 03:41:41;;;;;;;3.03;1.27;;;10.00;99.90;;;;;;5090246;28;20573;-74
2023/12/29 03:44:07;;;;;;;1.30;1.10;;;10.20;99.90;;;;;;5090290;28;20189;-73
2023/12/29 03:46:32;;;;;;;2.97;1.53;;;10.00;99.90;;;;;;5090386;28;20703;-74
2023/12/29 03:48:58;;;;;;;1.37;1.00;;;10.00;99.90;;;;;;5089557;28;20181;-72
2023/12/29 03:51:24;;;;;;;1.50;1.40;;;10.00;99.90;;;;;;5090599;28;20276;-72
2023/12/29 03:53:50;;;;;;;1.13;1.03;;;10.00;99.90;;;;;;5088828;28;20423;-73
2023/12/29 03:56:17;;;;;;;1.97;1.27;;;10.00;99.90;;;;;;5088328;28;20447;-73
2023/12/29 03:58:43;;;;;;;1.47;1.37;;;10.00;99.90;;;;;;5089819;28;20183;-71
2023/12/29 04:01:14;;;;;;;1.30;1.20;;;10.00;99.90;;;;;;5071419;28;20936;-72
2023/12/29 04:03:40;;;;;;;1.30;1.20;;;10.00;99.90;;;;;;5070725;28;20431;-71
2023/12/29 04:06:06;;;;;;;2.87;1.80;;;9.90;99.90;;;;;;5089203;28;21336;-72
2023/12/29 04:08:36;;;;;;;1.90;1.30;;;10.00;99.90;;;;;;5089066;28;20464;-72
2023/12/29 04:11:03;;;;;;;2.73;1.50;;;10.00;99.90;;;;;;5089040;28;20424;-72
2023/12/29 04:13:29;;;;;;;0.90;0.90;;;10.00;99.90;;;;;;5089057;28;20560;-72
2023/12/29 04:15:54;;;;;;;1.97;0.80;;;10.00;99.90;;;;;;5087650;28;20519;-73
2023/12/29 04:18:22;;;;;;;1.00;0.90;;;10.10;99.90;;;;;;5089061;28;20429;-73
2023/12/29 04:20:47;;;;;;;1.93;1.00;;;10.10;99.90;;;;;;5089254;28;20437;-73
2023/12/29 04:23:13;;;;;;;1.63;1.30;;;10.10;99.90;;;;;;5089094;28;20429;-71
2023/12/29 04:25:39;;;;;;;3.33;1.10;;;10.10;99.90;;;;;;5089303;28;20200;-73
2023/12/29 04:28:06;;;;;;;1.20;1.10;;;10.10;99.90;;;;;;5089481;28;20214;-72
2023/12/29 04:30:32;;;;;;;1.30;1.20;;;10.10;99.90;;;;;;5088373;28;20501;-72
2023/12/29 04:32:57;;;;;;;1.37;1.27;;;10.10;99.90;;;;;;5087806;28;20895;-73
2023/12/29 04:35:23;;;;;;;1.57;1.47;;;10.10;99.90;;;;;;5088346;28;20190;-73
2023/12/29 04:37:49;;;;;;;1.63;1.30;;;10.00;99.90;;;;;;5087209;28;20187;-72
2023/12/29 04:40:15;;;;;;;1.40;1.30;;;10.10;99.90;;;;;;5088615;28;20201;-73
2023/12/29 04:42:41;;;;;;;5.23;1.30;;;10.10;99.90;;;;;;5088640;28;20410;-73
2023/12/29 04:45:07;;;;;;;4.03;1.40;;;10.10;99.90;;;;;;5087311;28;20417;-72
2023/12/29 04:47:32;;;;;;;1.73;1.40;;;10.10;99.90;;;;;;5087180;28;20206;-73
2023/12/29 04:49:58;;;;;;;1.50;1.40;;;10.10;99.90;;;;;;5087183;28;20421;-72
2023/12/29 04:52:24;;;;;;;3.47;1.53;;;10.10;99.90;;;;;;5087419;28;20195;-72
2023/12/29 04:54:50;;;;;;;1.47;1.37;;;10.10;99.90;;;;;;5087409;28;20178;-73
2023/12/29 04:57:15;;;;;;;1.97;1.40;;;10.10;99.90;;;;;;5088045;28;20259;-73
2023/12/29 04:59:41;;;;;;;1.33;1.23;;;10.20;99.90;;;;;;5085849;28;20351;-71
2023/12/29 05:02:06;;;;;;;2.00;1.60;;;10.10;99.90;;;;;;5087565;28;20440;-73
2023/12/29 05:04:32;;;;;;;3.07;1.50;;;10.10;99.90;;;;;;5085772;28;20292;-73
2023/12/29 05:06:58;;;;;;;1.47;1.37;;;10.20;99.90;;;;;;5085216;28;20600;-73
2023/12/29 05:09:23;;;;;;;1.43;1.20;;;10.20;99.90;;;;;;5085329;28;20176;-72
2023/12/29 05:11:49;;;;;;;1.50;1.40;;;10.20;99.90;;;;;;5085549;28;20191;-73
2023/12/29 05:14:14;;;;;;;1.70;1.60;;;10.10;99.90;;;;;;5085242;28;20192;-73
2023/12/29 05:16:41;;;;;;;2.20;1.40;;;10.20;99.90;;;;;;5088478;28;20199;-72
2023/12/29 05:19:07;;;;;;;1.27;1.17;;;10.30;99.90;;;;;;5090751;28;20706;-72
2023/12/29 05:21:32;;;;;;;1.97;1.37;;;10.10;99.90;;;;;;5090967;28;20417;-73
2023/12/29 05:23:59;;;;;;;1.37;1.27;;;10.20;99.90;;;;;;5090843;28;20513;-72
2023/12/29 05:26:24;;;;;;;2.33;1.30;;;10.20;99.90;;;;;;5090610;28;20186;-72
2023/12/29 05:28:50;;;;;;;1.60;1.50;;;10.10;99.90;;;;;;5090793;28;20427;-72
2023/12/29 05:31:16;;;;;;;2.40;1.87;;;10.10;99.90;;;;;;5090631;28;20669;-73
2023/12/29 05:33:43;;;;;;;1.43;1.33;;;10.20;99.90;;;;;;5089124;28;20192;-73
2023/12/29 05:36:10;;;;;;;1.23;1.13;;;10.10;99.90;;;;;;5090630;28;20977;-73
2023/12/29 05:38:37;;;;;;;1.47;1.10;;;10.20;99.90;;;;;;5088916;28;20586;-72
2023/12/29 05:41:05;;;;;;;1.50;1.40;;;10.20;99.90;;;;;;5090317;28;20924;-72
2023/12/29 05:43:33;;;;;;;1.40;1.30;;;10.20;99.90;;;;;;5090676;28;20501;-72
2023/12/29 05:45:59;;;;;;;2.47;1.37;;;10.20;99.90;;;;;;5088703;28;20566;-72
2023/12/29 05:48:25;;;;;;;2.10;1.90;;;10.20;99.90;;;;;;5088966;28;20503;-72
2023/12/29 05:50:51;;;;;;;1.17;1.07;;;10.20;99.90;;;;;;5072321;28;20477;-72
2023/12/29 05:53:17;;;;;;;1.43;1.33;;;10.20;99.90;;;;;;5090277;28;20307;-72
2023/12/29 05:55:44;;;;;;;2.80;1.10;;;10.20;99.90;;;;;;5090214;28;20485;-72
2023/12/29 05:58:09;;;;;;;2.30;1.50;;;10.20;99.90;;;;;;5090489;28;20922;-72
2023/12/29 06:00:36;;;;;;;1.23;1.03;;;10.20;99.90;;;;;;5088912;28;20428;-72
2023/12/29 06:03:04;;;;;;;1.53;1.43;;;10.10;99.90;;;;;;5090530;28;20227;-72
2023/12/29 06:05:30;;;;;;;2.13;0.97;;;10.10;99.90;;;;;;5090201;28;20544;-72
2023/12/29 06:07:55;;;;;;;3.30;1.23;;;10.20;99.90;;;;;;5090349;28;20584;-73
2023/12/29 06:10:21;;;;;;;6.90;2.90;;;10.10;99.90;;;;;;5090710;28;20416;-73
2023/12/29 06:12:47;;;;;;;5.57;3.00;;;10.10;99.90;;;;;;5090669;28;20455;-73
2023/12/29 06:15:16;;;;;;;1.77;1.20;;;10.10;99.90;;;;;;5089309;28;20197;-73
2023/12/29 06:17:42;;;;;;;1.87;1.00;;;10.10;99.90;;;;;;5090662;28;20190;-73
2023/12/29 06:20:09;;;;;;;1.47;1.20;;;10.10;99.90;;;;;;5089314;28;20500;-73
2023/12/29 06:22:42;;;;;;;1.33;1.23;;;10.20;99.90;;;;;;5090800;28;20405;-73
2023/12/29 06:25:11;;;;;;;1.77;1.20;;;10.20;99.90;;;;;;5091343;28;21168;-73
2023/12/29 06:27:38;;;;;;;1.43;1.20;;;10.20;99.90;;;;;;5088465;28;20983;-73
2023/12/29 06:30:08;;;;;;;1.30;1.10;;;10.20;99.90;;;;;;5072276;28;20431;-73
2023/12/29 06:32:34;;;;;;;1.30;1.13;;;10.20;99.90;;;;;;5090538;28;21282;-73
2023/12/29 06:35:00;;;;;;;2.00;1.07;;;10.30;99.90;;;;;;5088710;28;20439;-73
2023/12/29 06:37:26;;;;;;;0.80;0.70;;;10.30;99.90;;;;;;5088863;28;20551;-73
2023/12/29 06:39:51;;;;;;;2.60;1.10;;;10.30;99.90;;;;;;5090293;28;20558;-73
2023/12/29 06:42:17;;;;;;;1.30;1.20;;;10.30;99.90;;;;;;5089934;28;20266;-72
2023/12/29 06:44:42;;;;;;;2.13;1.40;;;10.30;99.90;;;;;;5088537;28;20182;-72
2023/12/29 06:47:09;;;;;;;1.03;0.90;;;10.30;99.90;;;;;;5090082;28;20214;-73
2023/12/29 06:49:35;;;;;;;1.33;1.23;;;10.30;99.90;;;;;;5089833;28;20167;-74
2023/12/29 06:52:01;;;;;;;1.20;1.10;;;10.30;99.90;;;;;;5089869;28;20408;-74
2023/12/29 06:54:27;;;;;;;1.27;1.00;;;10.30;99.90;;;;;;5089738;28;20410;-74
2023/12/29 06:56:53;;;;;;;1.30;0.83;;;10.30;99.90;;;;;;5089581;28;20446;-73
2023/12/29 06:59:19;;;;;;;1.30;0.90;;;10.30;99.90;;;;;;5089751;28;20570;-73
2023/12/29 07:01:45;;;;;;;1.10;1.00;;;10.30;99.90;;;;;;5089311;28;20171;-73
2023/12/29 07:04:12;;;;;;;2.03;1.33;;;10.30;99.90;;;;;;5088141;28;20454;-73
2023/12/29 07:06:37;;;;;;;3.37;1.07;;;10.30;99.90;;;;;;5087771;28;20468;-74
2023/12/29 07:09:03;;;;;;;1.10;0.90;;;10.30;99.90;;;;;;5089719;28;20920;-74
2023/12/29 07:11:29;;;;;;;1.17;0.87;;;10.30;99.90;;;;;;5089563;28;20228;-73
2023/12/29 07:13:55;;;;;;;1.70;0.87;;;10.40;99.90;;;;;;5089738;28;20424;-73
2023/12/29 07:16:20;;;;;;;1.50;1.40;;;10.40;99.90;;;;;;5088275;28;20437;-73
2023/12/29 07:18:46;;;;;;;1.93;1.13;;;10.40;99.90;;;;;;5087964;28;20187;-73
2023/12/29 07:21:13;;;;;;;2.63;1.20;;;10.40;99.90;;;;;;5089282;28;20195;-73
2023/12/29 07:23:39;;;;;;;2.13;1.13;;;10.40;99.90;;;;;;5087837;28;20178;-73
2023/12/29 07:26:04;;;;;;;1.33;1.00;;;10.40;99.90;;;;;;5089147;28;20519;-73
2023/12/29 07:28:32;;;;;;;1.90;1.40;;;10.40;99.90;;;;;;5087565;28;21117;-73
2023/12/29 07:30:57;;;;;;;3.00;1.03;;;10.40;99.90;;;;;;5089059;28;20186;-74
2023/12/29 07:33:24;;;;;;;1.57;1.47;;;10.30;99.90;;;;;;5070575;28;20935;-74
2023/12/29 07:35:50;;;;;;;1.47;1.10;;;10.30;99.90;;;;;;5087097;28;20483;-74
2023/12/29 07:38:16;;;;;;;1.50;1.00;;;10.40;99.90;;;;;;5088750;28;20834;-74
2023/12/29 07:40:42;;;;;;;1.17;1.07;;;10.30;99.90;;;;;;5088618;28;20418;-73
2023/12/29 07:43:08;;;;;;;1.20;1.10;;;10.30;99.90;;;;;;5087068;28;20974;-73
2023/12/29 07:45:33;;;;;;;2.50;1.00;;;10.30;99.90;;;;;;5088375;28;20568;-74
2023/12/29 07:47:59;;;;;;;1.40;1.03;;;10.30;99.90;;;;;;5087061;28;20468;-74
2023/12/29 07:50:25;;;;;;;0.90;0.80;;;10.40;99.90;;;;;;5088437;28;20177;-74
2023/12/29 07:52:50;;;;;;;2.57;1.53;;;10.30;99.90;;;;;;5088524;28;20186;-74
2023/12/29 07:55:16;;;;;;;2.67;1.03;;;10.30;99.90;;;;;;5069874;28;20654;-74
2023/12/29 07:57:43;;;;;;;1.73;0.87;;;10.30;99.90;;;;;;5088649;28;20299;-73
2023/12/29 08:00:09;;;;;;;2.27;1.40;;;10.30;99.90;;;;;;5088376;28;20207;-73
2023/12/29 08:02:35;;;;;;;1.10;1.00;;;10.40;99.90;;;;;;5088198;28;21033;-74
2023/12/29 08:05:01;;;;;;;1.93;1.00;;;10.30;99.90;;;;;;5087856;28;20479;-74
2023/12/29 08:07:26;;;;;;;1.93;1.30;;;10.40;99.90;;;;;;5087857;28;20462;-74
2023/12/29 08:09:52;;;;;;;1.00;0.90;;;10.40;99.90;;;;;;5087763;28;20838;-74
2023/12/29 08:12:17;;;;;;;0.90;0.80;;;10.40;99.90;;;;;;5086621;28;20217;-74
2023/12/29 08:14:43;;;;;;;1.53;0.90;;;10.50;99.90;;;;;;5086814;28;20183;-74
2023/12/29 08:17:09;;;;;;;1.20;1.00;;;10.50;99.90;;;;;;5087747;28;20209;-74
2023/12/29 08:19:35;;;;;;;1.13;1.00;;;10.50;99.90;;;;;;5087628;28;20189;-74
2023/12/29 08:22:00;;;;;;;2.03;1.10;;;10.60;99.90;;;;;;5069802;28;20520;-73
2023/12/29 08:24:26;;;;;;;0.93;0.83;;;10.60;99.90;;;;;;5087817;28;20188;-74
2023/12/29 08:26:52;;;;;;;1.00;0.70;;;10.70;99.90;;;;;;5086581;28;20633;-74
2023/12/29 08:29:19;;;;;;;1.13;1.03;;;10.80;99.90;;;;;;5087767;28;20175;-74
2023/12/29 08:31:45;;;;;;;1.30;1.00;;;10.90;99.90;;;;;;5088013;28;20936;-74
2023/12/29 08:34:12;;;;;;;1.73;0.90;;;11.10;99.90;;;;;;5088012;28;20411;-72
2023/12/29 08:36:37;;;;;;;1.00;0.80;;;11.10;99.90;;;;;;5087946;28;21014;-74
2023/12/29 08:39:03;;;;;;;1.40;0.90;;;11.20;99.90;;;;;;5086715;28;20444;-74
2023/12/29 08:41:29;;;;;;;2.33;0.80;;;11.60;99.90;;;;;;5088006;28;20592;-74
2023/12/29 08:43:54;;;;;;;2.07;0.80;;;12.30;99.90;;;;;;5087715;28;20188;-74
2023/12/29 08:46:20;;;;;;;2.80;0.90;;;12.80;99.90;;;;;;5086393;28;20744;-74
2023/12/29 08:48:46;;;;;;;1.00;0.90;;;13.30;99.90;;;;;;5087358;28;20217;-74
2023/12/29 08:51:12;;;;;;;1.30;0.90;;;13.50;99.90;;;;;;5086644;28;20183;-75
2023/12/29 08:53:38;;;;;;;1.53;1.00;;;13.00;99.90;;;;;;5087474;28;20498;-74
2023/12/29 08:56:04;;;;;;;0.90;0.70;;;13.50;99.90;;;;;;5085947;28;20205;-74
2023/12/29 08:58:31;;;;;;;1.03;0.90;;;13.30;99.90;;;;;;5086086;28;20996;-74
2023/12/29 09:00:56;;;;;;;3.17;1.27;;;13.30;99.90;;;;;;5085703;28;20522;-74
2023/12/29 09:03:22;;;;;;;1.93;0.87;;;13.00;99.90;;;;;;5085966;28;20502;-74
2023/12/29 09:05:47;;;;;;;1.97;0.70;;;12.80;99.90;;;;;;5087121;28;20201;-74
2023/12/29 09:08:13;;;;;;;3.63;0.70;;;12.70;99.90;;;;;;5087170;28;20233;-74
2023/12/29 09:10:39;;;;;;;1.20;0.83;;;12.70;99.90;;;;;;5086327;28;20176;-74
2023/12/29 09:13:05;;;;;;;0.90;0.73;;;12.60;99.90;;;;;;5086959;28;20181;-74
2023/12/29 09:15:30;;;;;;;1.63;0.83;;;12.70;99.90;;;;;;5085518;28;20201;-74
2023/12/29 09:17:56;;;;;;;1.93;0.60;;;12.70;99.90;;;;;;5087392;28;20483;-74
2023/12/29 09:20:21;;;;;;;1.00;0.73;;;12.30;99.90;;;;;;5085922;28;20296;-73
2023/12/29 09:22:47;;;;;;;0.97;0.70;;;12.40;99.90;;;;;;5087331;28;20193;-73
2023/12/29 09:25:13;;;;;;;0.90;0.63;;;12.40;99.90;;;;;;5086113;28;20204;-73
2023/12/29 09:27:39;;;;;;;1.07;0.63;;;12.40;99.90;;;;;;5087414;28;20469;-73
2023/12/29 09:30:05;;;;;;;0.80;0.70;;;12.50;99.90;;;;;;5086025;28;20263;-73
2023/12/29 09:32:31;;;;;;;1.07;0.70;;;12.40;99.90;;;;;;5087445;28;20282;-74
2023/12/29 09:34:56;;;;;;;1.00;0.70;;;12.30;99.90;;;;;;5086036;28;20440;-74
2023/12/29 09:37:22;;;;;;;1.03;0.93;;;12.30;99.90;;;;;;5085641;28;20290;-73
2023/12/29 09:39:48;;;;;;;1.90;1.00;;;12.30;99.90;;;;;;5087125;28;20192;-73
2023/12/29 09:42:24;;;;;;;1.77;0.87;;;12.30;99.90;;;;;;5068558;28;20656;-73
2023/12/29 09:44:51;;;;;;;1.00;0.80;;;12.20;99.90;;;;;;5087043;28;20185;-73
2023/12/29 09:47:25;;;;;;;1.00;0.70;;;12.20;99.90;;;;;;5085328;28;20972;-73
2023/12/29 09:49:54;;;;;;;0.70;0.50;;;12.10;99.90;;;;;;5086736;28;20487;-74
2023/12/29 09:52:21;;;;;;;0.80;0.67;;;12.10;99.90;;;;;;5086790;28;20475;-74
2023/12/29 09:54:49;;;;;;;0.90;0.60;;;12.10;99.90;;;;;;5086597;28;20416;-74
2023/12/29 09:57:16;;;;;;;1.10;0.93;;;12.20;99.90;;;;;;5086429;28;20516;-74
2023/12/29 09:59:42;;;;;;;1.00;0.80;;;12.20;99.90;;;;;;5068160;28;20426;-74
2023/12/29 10:02:15;;;;;;;1.20;0.90;;;12.30;99.90;;;;;;5085543;28;20423;-74
2023/12/29 10:04:41;;;;;;;1.00;0.80;;;12.50;99.90;;;;;;5088773;28;20434;-74
2023/12/29 10:07:10;;;;;;;1.50;0.60;;;13.20;99.90;;;;;;5088836;28;21195;-74
2023/12/29 10:09:37;;;;;;;1.87;0.70;;;14.20;99.90;;;;;;5090459;28;20944;-74
2023/12/29 10:12:05;;;;;;;0.90;0.60;;;15.00;99.90;;;;;;5088601;28;20439;-74
2023/12/29 10:14:42;;;;;;;1.20;0.80;;;15.20;99.90;;;;;;5088891;28;20953;-74
2023/12/29 10:17:29;;;;;;;2.20;1.03;;;14.90;99.90;;;;;;5089781;28;20458;-74
2023/12/29 10:20:34;;;;;;;1.20;0.70;;;14.50;99.90;;;;;;5089805;28;20412;-73
2023/12/29 10:23:16;;;;;;;1.00;0.90;;;14.10;99.90;;;;;;5089220;28;21083;-74
2023/12/29 10:25:42;;;;;;;1.23;0.70;;;13.60;99.90;;;;;;5089465;28;20440;-74
2023/12/29 10:28:09;;;;;;;1.00;0.80;;;13.40;99.90;;;;;;5088304;28;20468;-74
2023/12/29 10:30:35;;;;;;;1.43;0.83;;;13.20;99.90;;;;;;5089675;28;20806;-74
2023/12/29 10:33:02;;;;;;;2.03;0.60;;;13.30;99.90;;;;;;5071267;28;20419;-74
2023/12/29 10:35:29;;;;;;;1.03;0.70;;;13.40;99.90;;;;;;5089316;28;20218;-74
2023/12/29 10:38:09;;;;;;;1.00;0.60;;;12.90;99.90;;;;;;5089427;28;20945;-75
2023/12/29 10:40:35;;;;;;;0.90;0.70;;;13.10;99.90;;;;;;5088400;28;20923;-75
2023/12/29 10:43:06;;;;;;;0.90;0.60;;;13.50;99.90;;;;;;5054433;28;20429;-74
2023/12/29 10:45:32;;;;;;;2.30;0.50;;;14.70;99.90;;;;;;5089480;28;20297;-75
2023/12/29 10:48:00;;;;;;;2.50;0.80;;;15.00;99.90;;;;;;5089521;28;20554;-75
2023/12/29 10:50:27;;;;;;;0.90;0.80;;;15.80;99.90;;;;;;5089643;28;20436;-75
2023/12/29 10:53:11;;;;;;;1.00;0.80;;;17.30;99.90;;;;;;5089892;28;20445;-75
2023/12/29 10:55:37;;;;;;;1.13;0.70;;;18.60;99.90;;;;;;5089783;28;20514;-74
2023/12/29 10:58:03;;;;;;;2.90;0.80;;;19.50;96.90;;;;;;5089661;28;20518;-74
2023/12/29 11:00:35;;;;;;;1.07;0.57;;;18.90;94.40;;;;;;5089262;28;20187;-75
2023/12/29 11:03:01;;;;;;;1.43;0.80;;;18.80;94.50;;;;;;5087794;28;20292;-74
2023/12/29 11:05:27;;;;;;;1.10;0.80;;;18.80;94.20;;;;;;5088149;28;20568;-75
2023/12/29 11:07:54;;;;;;;1.00;0.80;;;17.90;93.70;;;;;;5089560;28;20216;-75
2023/12/29 11:10:21;;;;;;;0.80;0.60;;;18.40;94.20;;;;;;5088055;28;20413;-74
2023/12/29 11:12:48;;;;;;;1.77;0.60;;;19.10;93.30;;;;;;5089107;28;20781;-74
2023/12/29 11:15:15;;;;;;;0.93;0.83;;;19.30;92.40;;;;;;5087528;28;20795;-74
2023/12/29 11:17:49;;;;;;;1.00;0.80;;;18.80;93.10;;;;;;5087375;28;20537;-74
2023/12/29 11:20:22;;;;;;;1.07;0.70;;;17.60;92.80;;;;;;5088949;28;20419;-74
2023/12/29 11:22:47;;;;;;;1.10;0.87;;;16.80;95.20;;;;;;5089374;28;20421;-73
2023/12/29 11:25:15;;;;;;;1.00;0.60;;;17.10;95.70;;;;;;5070115;28;20432;-73
2023/12/29 11:27:41;;;;;;;0.90;0.70;;;17.50;94.70;;;;;;5087060;28;20202;-74
2023/12/29 11:30:08;;;;;;;0.97;0.87;;;17.60;94.20;;;;;;5088957;28;20425;-74
2023/12/29 11:32:47;;;;;;;0.90;0.70;;;17.90;95.10;;;;;;5088172;28;20766;-74
2023/12/29 11:35:28;;;;;;;1.10;0.80;;;18.20;94.70;;;;;;5088121;28;20439;-73
2023/12/29 11:38:39;;;;;;;3.33;1.60;;;17.80;94.70;;;;;;5086626;28;20485;-73
2023/12/29 11:41:22;;;;;;;7.67;5.43;;;18.20;94.00;;;;;;5073129;28;20871;-74
2023/12/29 11:43:57;;;;;;;13.60;9.90;;;17.80;93.90;;;;;;5086620;28;20430;-74
2023/12/29 11:46:42;;;;;;;1.80;1.33;;;17.10;95.20;;;;;;5086793;28;20438;-73
2023/12/29 11:49:09;;;;;;;2.10;1.47;;;16.30;96.20;;;;;;5086675;28;20443;-74
2023/12/29 11:51:48;;;;;;;2.33;0.80;;;15.90;98.40;;;;;;5088160;28;20506;-74
2023/12/29 11:54:26;;;;;;;0.90;0.80;;;15.60;99.90;;;;;;5088165;28;20426;-73
2023/12/29 11:56:55;;;;;;;1.73;0.97;;;14.90;99.90;;;;;;5086747;28;20957;-73
2023/12/29 11:59:23;;;;;;;1.93;1.00;;;14.70;99.90;;;;;;5088812;28;20791;-74
2023/12/29 12:01:49;;;;;;;2.00;0.90;;;14.10;99.90;;;;;;5088234;28;20463;-74
2023/12/29 12:04:40;;;;;;;5.23;2.80;;;14.00;99.90;;;;;;5087909;28;20920;-74
2023/12/29 12:07:07;;;;;;;2.30;1.30;;;13.90;99.90;;;;;;5087815;28;20468;-74
2023/12/29 12:09:36;;;;;;;3.03;1.93;;;13.50;99.90;;;;;;5088250;28;20538;-74
2023/12/29 12:12:03;;;;;;;2.50;1.43;;;13.50;99.90;;;;;;5087025;28;20448;-74
2023/12/29 12:14:51;;;;;;;1.20;0.93;;;13.30;99.90;;;;;;5088465;28;20413;-73
2023/12/29 12:17:33;;;;;;;1.43;0.87;;;13.30;99.90;;;;;;5088448;28;20436;-74
2023/12/29 12:20:09;;;;;;;0.90;0.63;;;13.20;99.90;;;;;;5088278;28;21008;-74
2023/12/29 12:22:36;;;;;;;1.17;0.80;;;13.10;99.90;;;;;;5088116;28;20427;-75
2023/12/29 12:25:03;;;;;;;1.30;0.90;;;13.10;99.90;;;;;;5087009;28;20426;-74
2023/12/29 12:27:31;;;;;;;1.03;0.93;;;13.20;99.90;;;;;;5085846;28;20468;-74
2023/12/29 12:29:59;;;;;;;1.90;1.10;;;13.30;99.90;;;;;;5087489;28;20533;-75
2023/12/29 12:32:29;;;;;;;2.40;0.90;;;13.30;99.90;;;;;;5087677;28;20419;-74
2023/12/29 12:34:56;;;;;;;1.23;0.70;;;13.20;99.90;;;;;;5087432;28;20947;-74
2023/12/29 12:37:27;;;;;;;2.47;1.00;;;13.20;99.90;;;;;;5087364;28;20432;-74
2023/12/29 12:39:53;;;;;;;3.27;1.00;;;13.30;99.90;;;;;;5085933;28;20616;-74
2023/12/29 12:42:22;;;;;;;1.50;1.03;;;13.30;99.90;;;;;;5069271;28;20559;-74
2023/12/29 12:45:12;;;;;;;2.03;1.20;;;13.10;99.90;;;;;;5087171;28;20192;-74
2023/12/29 12:47:45;;;;;;;1.40;1.10;;;13.20;99.90;;;;;;5080727;28;20507;-74
2023/12/29 12:50:12;;;;;;;1.70;1.40;;;13.10;99.90;;;;;;5087154;28;20434;-74